createdAt,value
2022-10-09T00:01:42.461Z,18.83
2022-10-09T00:04:09.529Z,18.76
2022-10-09T00:06:36.732Z,18.81
2022-10-09T00:09:04.116Z,18.87
2022-10-09T00:11:32.429Z,18.95
2022-10-09T00:13:59.885Z,18.99
2022-10-09T00:16:27.563Z,18.98
2022-10-09T00:18:54.810Z,18.93
2022-10-09T00:21:29.656Z,18.98
2022-10-09T00:23:57.838Z,19.17
2022-10-09T00:26:26.010Z,19.02
2022-10-09T00:28:53.432Z,18.96
2022-10-09T00:31:20.593Z,18.81
2022-10-09T00:34:06.141Z,18.64
2022-10-09T00:36:33.244Z,18.46
2022-10-09T00:39:00.362Z,18.34
2022-10-09T00:41:29.232Z,18.24
2022-10-09T00:44:01.179Z,18.22
2022-10-09T00:46:50.809Z,18.19
2022-10-09T00:49:25.053Z,18.10
2022-10-09T00:51:53.742Z,18.02
2022-10-09T00:54:22.748Z,18.03
2022-10-09T00:56:50.086Z,18.01
2022-10-09T00:59:17.878Z,17.98
2022-10-09T01:01:45.657Z,17.88
2022-10-09T01:04:13.038Z,17.83
2022-10-09T01:06:50.032Z,17.89
2022-10-09T01:09:23.689Z,17.88
2022-10-09T01:11:56.332Z,17.87
2022-10-09T01:14:27.791Z,17.88
2022-10-09T01:17:04.101Z,17.86
2022-10-09T01:19:46.372Z,17.85
2022-10-09T01:22:13.468Z,17.84
2022-10-09T01:25:03.556Z,17.81
2022-10-09T01:27:30.868Z,17.81
2022-10-09T01:30:02.409Z,17.79
2022-10-09T01:32:33.711Z,17.81
2022-10-09T01:35:01.167Z,17.85
2022-10-09T01:37:29.922Z,17.81
2022-10-09T01:39:58.124Z,17.74
2022-10-09T01:42:26.643Z,17.70
2022-10-09T01:44:53.693Z,17.72
2022-10-09T01:47:21.563Z,17.71
2022-10-09T01:50:01.740Z,17.72
2022-10-09T01:52:42.023Z,17.79
2022-10-09T01:55:32.420Z,17.70
2022-10-09T02:01:08.514Z,17.29
2022-10-09T02:03:36.225Z,17.03
2022-10-09T02:06:07.914Z,16.93
2022-10-09T02:08:36.923Z,16.87
2022-10-09T02:11:04.456Z,16.93
2022-10-09T02:13:32.992Z,17.06
2022-10-09T02:16:09.536Z,17.16
2022-10-09T02:18:36.728Z,17.16
2022-10-09T02:21:08.772Z,17.11
2022-10-09T02:23:37.038Z,17.08
2022-10-09T02:26:04.766Z,17.15
2022-10-09T02:28:32.308Z,17.23
2022-10-09T02:31:05.495Z,17.29
2022-10-09T02:33:33.792Z,17.28
2022-10-09T02:36:01.537Z,17.34
2022-10-09T02:38:29.036Z,17.37
2022-10-09T02:41:02.208Z,17.33
2022-10-09T02:43:29.504Z,17.31
2022-10-09T02:45:56.657Z,17.34
2022-10-09T02:48:23.765Z,17.32
2022-10-09T02:50:50.835Z,17.35
2022-10-09T02:53:17.926Z,17.34
2022-10-09T02:55:45.063Z,17.36
2022-10-09T02:58:46.431Z,17.35
2022-10-09T03:01:13.845Z,17.35
2022-10-09T03:03:41.040Z,17.34
2022-10-09T03:06:09.683Z,17.31
2022-10-09T03:08:37.850Z,17.32
2022-10-09T03:11:05.217Z,17.37
2022-10-09T03:13:32.628Z,17.37
2022-10-09T03:16:04.407Z,17.37
2022-10-09T03:18:31.729Z,17.40
2022-10-09T03:20:58.899Z,17.39
2022-10-09T03:23:26.217Z,17.40
2022-10-09T03:25:59.987Z,17.40
2022-10-09T03:28:27.621Z,17.41
2022-10-09T03:30:55.184Z,17.46
2022-10-09T03:33:22.878Z,17.42
2022-10-09T03:35:50.257Z,17.46
2022-10-09T03:38:17.412Z,17.42
2022-10-09T03:40:45.007Z,17.40
2022-10-09T03:43:12.105Z,17.40
2022-10-09T03:45:39.782Z,17.46
2022-10-09T03:48:07.255Z,17.51
2022-10-09T03:50:34.741Z,17.54
2022-10-09T03:53:01.917Z,17.61
2022-10-09T03:55:28.986Z,17.61
2022-10-09T03:57:56.052Z,17.63
2022-10-09T04:00:24.208Z,17.57
2022-10-09T04:02:52.540Z,17.54
2022-10-09T04:05:20.217Z,17.51
2022-10-09T04:07:47.357Z,17.52
2022-10-09T04:10:14.603Z,17.51
2022-10-09T04:12:41.806Z,17.55
2022-10-09T04:15:09.521Z,17.54
2022-10-09T04:17:36.856Z,17.57
2022-10-09T04:20:04.484Z,17.54
2022-10-09T04:22:31.717Z,17.51
2022-10-09T04:24:58.846Z,17.48
2022-10-09T04:27:26.132Z,17.35
2022-10-09T04:29:53.234Z,17.32
2022-10-09T04:32:21.792Z,17.37
2022-10-09T04:34:48.922Z,17.29
2022-10-09T04:37:16.037Z,17.29
2022-10-09T04:39:43.267Z,17.36
2022-10-09T04:42:10.462Z,17.42
2022-10-09T04:44:37.634Z,17.39
2022-10-09T04:47:08.120Z,17.50
2022-10-09T04:49:37.726Z,17.40
2022-10-09T04:52:04.884Z,17.30
2022-10-09T04:54:32.056Z,17.23
2022-10-09T04:56:59.193Z,17.12
2022-10-09T04:59:26.339Z,17.11
2022-10-09T05:01:53.438Z,17.12
2022-10-09T05:04:20.547Z,17.13
2022-10-09T05:06:47.737Z,17.17
2022-10-09T05:09:14.800Z,17.20
2022-10-09T05:11:42.911Z,17.26
2022-10-09T05:14:10.573Z,17.30
2022-10-09T05:17:00.975Z,17.39
2022-10-09T05:19:24.819Z,17.34
2022-10-09T05:21:51.898Z,17.31
2022-10-09T05:24:19.091Z,17.38
2022-10-09T05:26:46.170Z,17.41
2022-10-09T05:29:13.329Z,17.41
2022-10-09T05:31:40.511Z,17.44
2022-10-09T05:34:07.648Z,17.37
2022-10-09T05:36:34.757Z,17.30
2022-10-09T05:39:02.021Z,17.24
2022-10-09T05:41:29.746Z,17.25
2022-10-09T05:44:00.544Z,17.08
2022-10-09T05:46:29.746Z,17.09
2022-10-09T05:48:57.896Z,16.98
2022-10-09T05:51:29.287Z,16.92
2022-10-09T05:53:56.840Z,16.89
2022-10-09T05:56:27.894Z,16.89
2022-10-09T05:58:55.974Z,16.85
2022-10-09T06:01:24.912Z,16.87
2022-10-09T06:03:53.153Z,16.96
2022-10-09T06:06:21.032Z,16.95
2022-10-09T06:08:48.505Z,16.82
2022-10-09T06:11:16.886Z,16.83
2022-10-09T06:13:44.439Z,16.90
2022-10-09T06:16:12.854Z,16.93
2022-10-09T06:18:42.233Z,16.88
2022-10-09T06:21:11.570Z,16.87
2022-10-09T06:23:38.776Z,16.93
2022-10-09T06:26:10.731Z,16.95
2022-10-09T06:28:38.288Z,17.03
2022-10-09T06:31:05.693Z,17.00
2022-10-09T06:33:34.256Z,17.00
2022-10-09T06:36:10.416Z,16.86
2022-10-09T06:38:38.351Z,16.88
2022-10-09T06:41:07.234Z,16.81
2022-10-09T06:43:34.481Z,16.92
2022-10-09T06:46:03.367Z,16.96
2022-10-09T06:48:31.652Z,16.93
2022-10-09T06:51:02.761Z,17.01
2022-10-09T06:53:29.895Z,17.05
2022-10-09T06:56:01.679Z,17.16
2022-10-09T06:58:30.313Z,17.21
2022-10-09T07:01:06.759Z,17.30
2022-10-09T07:03:34.233Z,17.31
2022-10-09T07:06:07.585Z,17.33
2022-10-09T07:08:35.448Z,17.38
2022-10-09T07:11:12.765Z,17.38
2022-10-09T07:13:40.615Z,17.51
2022-10-09T07:16:08.241Z,17.52
2022-10-09T07:18:36.390Z,17.67
2022-10-09T07:21:04.665Z,17.67
2022-10-09T07:23:32.813Z,17.70
2022-10-09T07:26:00.234Z,17.90
2022-10-09T07:28:28.398Z,17.92
2022-10-09T07:30:56.092Z,18.06
2022-10-09T07:33:23.320Z,18.23
2022-10-09T07:35:57.657Z,18.31
2022-10-09T07:38:25.293Z,18.35
2022-10-09T07:40:52.881Z,18.43
2022-10-09T07:43:20.447Z,18.49
2022-10-09T07:45:47.603Z,18.51
2022-10-09T07:48:14.812Z,18.64
2022-10-09T07:50:42.008Z,18.77
2022-10-09T07:53:09.891Z,18.87
2022-10-09T07:55:37.091Z,18.98
2022-10-09T07:58:04.237Z,19.13
2022-10-09T08:00:31.366Z,19.21
2022-10-09T08:02:58.602Z,19.27
2022-10-09T08:05:25.766Z,19.37
2022-10-09T08:07:53.043Z,19.56
2022-10-09T08:10:20.194Z,19.71
2022-10-09T08:12:47.757Z,19.90
2022-10-09T08:15:15.126Z,20.21
2022-10-09T08:17:42.548Z,20.24
2022-10-09T08:20:09.852Z,20.38
2022-10-09T08:22:37.010Z,20.58
2022-10-09T08:25:04.361Z,20.64
2022-10-09T08:27:31.530Z,20.55
2022-10-09T08:29:58.677Z,20.56
2022-10-09T08:32:25.814Z,20.79
2022-10-09T08:34:53.001Z,20.68
2022-10-09T08:37:20.164Z,20.79
2022-10-09T08:39:47.347Z,20.97
2022-10-09T08:42:31.263Z,21.75
2022-10-09T08:45:00.231Z,22.21
2022-10-09T08:47:47.613Z,22.61
2022-10-09T08:50:14.769Z,22.68
2022-10-09T08:53:00.412Z,22.67
2022-10-09T08:55:29.549Z,22.56
2022-10-09T08:58:00.926Z,21.89
2022-10-09T09:00:30.118Z,21.88
2022-10-09T09:03:20.442Z,21.76
2022-10-09T09:05:58.038Z,21.59
2022-10-09T09:08:38.152Z,21.33
2022-10-09T09:11:22.406Z,21.37
2022-10-09T09:13:52.614Z,21.39
2022-10-09T09:16:31.428Z,21.45
2022-10-09T09:19:14.115Z,21.37
2022-10-09T09:21:48.484Z,21.46
2022-10-09T09:24:17.753Z,21.23
2022-10-09T09:26:47.416Z,21.27
2022-10-09T09:29:15.695Z,21.40
2022-10-09T09:31:43.285Z,21.50
2022-10-09T09:34:20.715Z,21.50
2022-10-09T09:37:00.542Z,21.48
2022-10-09T09:42:18.145Z,21.56
2022-10-09T09:45:05.470Z,21.54
2022-10-09T09:47:38.864Z,21.60
2022-10-09T09:50:06.386Z,21.62
2022-10-09T09:52:39.452Z,21.73
2022-10-09T09:55:06.897Z,21.64
2022-10-09T09:57:40.844Z,21.69
2022-10-09T10:00:23.587Z,21.74
2022-10-09T10:03:01.684Z,21.55
2022-10-09T10:05:34.209Z,21.46
2022-10-09T10:08:01.372Z,21.20
2022-10-09T10:10:28.601Z,21.22
2022-10-09T10:12:57.007Z,21.20
2022-10-09T10:15:24.102Z,21.38
2022-10-09T10:18:04.732Z,21.47
2022-10-09T10:20:41.372Z,21.32
2022-10-09T10:23:44.162Z,21.24
2022-10-09T10:26:29.913Z,21.38
2022-10-09T10:29:12.153Z,21.46
2022-10-09T10:31:52.148Z,21.32
2022-10-09T10:34:30.759Z,21.49
2022-10-09T10:37:20.622Z,21.40
2022-10-09T10:39:50.931Z,21.31
2022-10-09T10:42:21.863Z,21.37
2022-10-09T10:44:54.455Z,21.46
2022-10-09T10:47:24.224Z,21.64
2022-10-09T10:49:51.423Z,21.69
2022-10-09T10:52:36.239Z,21.90
2022-10-09T10:55:15.644Z,21.97
2022-10-09T10:57:49.759Z,21.90
2022-10-09T11:00:17.539Z,22.06
2022-10-09T11:03:06.344Z,21.91
2022-10-09T11:05:42.890Z,21.82
2022-10-09T11:08:28.886Z,21.77
2022-10-09T11:10:58.848Z,21.64
2022-10-09T11:13:29.683Z,21.55
2022-10-09T11:15:59.959Z,21.51
2022-10-09T11:18:27.108Z,21.50
2022-10-09T11:20:54.257Z,21.47
2022-10-09T11:23:26.975Z,21.72
2022-10-09T11:26:06.052Z,21.76
2022-10-09T11:28:37.540Z,21.69
2022-10-09T11:31:11.932Z,21.68
2022-10-09T11:33:43.522Z,21.67
2022-10-09T11:36:13.421Z,21.78
2022-10-09T11:38:48.824Z,21.77
2022-10-09T11:41:16.343Z,21.60
2022-10-09T11:43:48.812Z,21.56
2022-10-09T11:46:18.816Z,21.65
2022-10-09T11:48:52.574Z,21.71
2022-10-09T11:51:23.372Z,21.75
2022-10-09T11:53:51.360Z,21.80
2022-10-09T11:56:26.662Z,21.98
2022-10-09T11:58:59.129Z,21.95
2022-10-09T12:01:31.508Z,22.03
2022-10-09T12:04:09.558Z,22.16
2022-10-09T12:06:47.558Z,22.23
2022-10-09T12:09:33.569Z,22.25
2022-10-09T12:12:09.131Z,22.16
2022-10-09T12:14:37.474Z,22.09
2022-10-09T12:17:30.964Z,22.10
2022-10-09T12:20:04.108Z,22.10
2022-10-09T12:22:40.672Z,22.03
2022-10-09T12:25:15.104Z,22.16
2022-10-09T12:27:42.769Z,22.09
2022-10-09T12:30:13.389Z,22.00
2022-10-09T12:32:43.469Z,22.26
2022-10-09T12:35:16.664Z,22.23
2022-10-09T12:37:43.839Z,22.20
2022-10-09T12:40:15.449Z,22.25
2022-10-09T12:42:43.606Z,22.21
2022-10-09T12:45:15.927Z,22.22
2022-10-09T12:47:43.213Z,22.16
2022-10-09T12:50:16.562Z,22.12
2022-10-09T12:52:48.047Z,22.11
2022-10-09T12:55:16.269Z,22.14
2022-10-09T12:57:43.593Z,22.20
2022-10-09T13:00:14.293Z,22.26
2022-10-09T13:02:41.666Z,22.28
2022-10-09T13:05:09.079Z,22.17
2022-10-09T13:07:36.245Z,22.22
2022-10-09T13:10:08.152Z,22.21
2022-10-09T13:12:35.424Z,22.30
2022-10-09T13:15:04.992Z,22.26
2022-10-09T13:17:33.805Z,22.13
2022-10-09T13:20:02.699Z,22.26
2022-10-09T13:22:33.718Z,22.32
2022-10-09T13:25:04.153Z,22.33
2022-10-09T13:27:32.669Z,22.49
2022-10-09T13:30:01.538Z,22.49
2022-10-09T13:32:28.710Z,22.42
2022-10-09T13:34:55.907Z,22.42
2022-10-09T13:37:23.925Z,22.31
2022-10-09T13:39:54.871Z,22.32
2022-10-09T13:42:23.437Z,22.36
2022-10-09T13:44:50.626Z,22.34
2022-10-09T13:47:20.754Z,22.37
2022-10-09T13:49:51.323Z,22.26
2022-10-09T13:52:18.714Z,22.30
2022-10-09T13:54:45.857Z,22.37
2022-10-09T13:57:13.123Z,22.48
2022-10-09T13:59:40.323Z,22.36
2022-10-09T14:02:07.497Z,22.30
2022-10-09T14:04:34.632Z,22.32
2022-10-09T14:07:01.788Z,22.33
2022-10-09T14:09:28.893Z,22.25
2022-10-09T14:11:56.223Z,22.26
2022-10-09T14:14:23.515Z,22.26
2022-10-09T14:16:50.901Z,22.28
2022-10-09T14:19:18.213Z,22.27
2022-10-09T14:21:46.902Z,22.28
2022-10-09T14:24:14.925Z,22.24
2022-10-09T14:26:44.798Z,22.22
2022-10-09T14:29:13.529Z,22.18
2022-10-09T14:31:40.771Z,22.09
2022-10-09T14:34:07.941Z,22.14
2022-10-09T14:36:37.194Z,22.07
2022-10-09T14:39:04.395Z,21.99
2022-10-09T14:41:36.820Z,21.95
2022-10-09T14:44:05.785Z,21.94
2022-10-09T14:46:34.025Z,21.97
2022-10-09T14:49:07.452Z,22.06
2022-10-09T14:51:36.960Z,22.09
2022-10-09T14:54:04.785Z,22.05
2022-10-09T14:56:31.954Z,22.06
2022-10-09T14:59:01.061Z,22.11
2022-10-09T15:01:29.509Z,22.12
2022-10-09T15:03:56.788Z,22.20
2022-10-09T15:06:24.282Z,22.20
2022-10-09T15:08:54.572Z,22.08
2022-10-09T15:11:22.162Z,22.13
2022-10-09T15:13:49.341Z,22.16
2022-10-09T15:16:17.783Z,22.20
2022-10-09T15:18:45.519Z,22.14
2022-10-09T15:21:16.745Z,22.14
2022-10-09T15:23:43.956Z,22.15
2022-10-09T15:26:11.179Z,22.18
2022-10-09T15:28:38.846Z,22.12
2022-10-09T15:31:06.768Z,22.04
2022-10-09T15:33:33.932Z,21.98
2022-10-09T15:36:02.752Z,21.92
2022-10-09T15:38:29.950Z,21.85
2022-10-09T15:40:57.147Z,21.85
2022-10-09T15:43:25.382Z,21.97
2022-10-09T15:45:54.207Z,21.92
2022-10-09T15:48:23.376Z,21.92
2022-10-09T15:50:52.225Z,21.81
2022-10-09T15:53:20.728Z,21.80
2022-10-09T15:55:49.113Z,21.81
2022-10-09T15:58:16.736Z,21.81
2022-10-09T16:00:47.370Z,21.66
2022-10-09T16:03:14.861Z,21.61
2022-10-09T16:05:43.492Z,21.65
2022-10-09T16:08:11.422Z,21.61
2022-10-09T16:10:48.636Z,21.51
2022-10-09T16:13:16.756Z,21.41
2022-10-09T16:15:44.785Z,21.36
2022-10-09T16:18:11.955Z,21.43
2022-10-09T16:20:39.929Z,21.32
2022-10-09T16:23:08.262Z,21.34
2022-10-09T16:25:36.385Z,21.28
2022-10-09T16:28:03.757Z,21.21
2022-10-09T16:30:32.328Z,21.26
2022-10-09T16:32:59.529Z,21.26
2022-10-09T16:35:26.711Z,21.21
2022-10-09T16:37:54.098Z,21.28
2022-10-09T16:40:32.686Z,21.15
2022-10-09T16:43:08.430Z,21.11
2022-10-09T16:45:35.629Z,21.08
2022-10-09T16:48:02.777Z,20.92
2022-10-09T16:50:30.090Z,20.84
2022-10-09T16:52:57.722Z,20.75
2022-10-09T16:55:25.473Z,20.71
2022-10-09T16:57:53.099Z,20.69
2022-10-09T17:00:20.385Z,20.68
2022-10-09T17:02:47.604Z,20.66
2022-10-09T17:05:14.707Z,20.57
2022-10-09T17:07:41.876Z,20.62
2022-10-09T17:10:09.571Z,20.72
2022-10-09T17:12:37.208Z,20.63
2022-10-09T17:15:05.468Z,20.51
2022-10-09T17:17:32.611Z,20.49
2022-10-09T17:19:59.804Z,20.47
2022-10-09T17:22:26.894Z,20.43
2022-10-09T17:24:54.002Z,20.41
2022-10-09T17:27:21.197Z,20.35
2022-10-09T17:29:48.250Z,20.33
2022-10-09T17:32:15.445Z,20.26
2022-10-09T17:34:45.827Z,20.23
2022-10-09T17:37:13.519Z,20.26
2022-10-09T17:39:43.213Z,20.18
2022-10-09T17:42:11.977Z,20.21
2022-10-09T17:44:39.160Z,20.12
2022-10-09T17:47:06.287Z,20.06
2022-10-09T17:49:33.430Z,20.09
2022-10-09T17:52:00.573Z,19.94
2022-10-09T17:54:27.697Z,20.07
2022-10-09T17:56:54.812Z,20.16
2022-10-09T17:59:56.828Z,20.12
2022-10-09T18:02:23.941Z,20.05
2022-10-09T18:04:51.319Z,20.04
2022-10-09T18:07:20.134Z,20.02
2022-10-09T18:09:49.501Z,20.02
2022-10-09T18:12:16.821Z,19.95
2022-10-09T18:14:43.890Z,19.96
2022-10-09T18:17:10.989Z,19.94
2022-10-09T18:19:38.111Z,19.93
2022-10-09T18:22:05.407Z,19.92
2022-10-09T18:24:32.516Z,19.99
2022-10-09T18:26:59.600Z,19.82
2022-10-09T18:29:26.830Z,19.78
2022-10-09T18:31:55.774Z,19.69
2022-10-09T18:34:22.950Z,19.66
2022-10-09T18:36:52.088Z,19.60
2022-10-09T18:39:21.661Z,19.60
2022-10-09T18:41:48.838Z,19.54
2022-10-09T18:44:17.920Z,19.41
2022-10-09T18:46:48.405Z,19.52
2022-10-09T18:49:17.450Z,19.50
2022-10-09T18:51:45.356Z,19.53
2022-10-09T18:54:17.929Z,19.47
2022-10-09T18:56:46.238Z,19.51
2022-10-09T18:59:15.092Z,19.48
2022-10-09T19:01:42.853Z,19.52
2022-10-09T19:04:10.578Z,19.59
2022-10-09T19:06:37.855Z,19.51
2022-10-09T19:09:05.070Z,19.49
2022-10-09T19:11:33.919Z,19.49
2022-10-09T19:14:02.440Z,19.41
2022-10-09T19:16:31.880Z,19.36
2022-10-09T19:18:59.685Z,19.29
2022-10-09T19:21:27.160Z,19.29
2022-10-09T19:23:55.242Z,19.34
2022-10-09T19:26:23.967Z,19.29
2022-10-09T19:28:52.488Z,19.34
2022-10-09T19:31:20.239Z,19.27
2022-10-09T19:33:48.032Z,19.23
2022-10-09T19:36:15.676Z,19.19
2022-10-09T19:38:43.925Z,19.24
2022-10-09T19:41:13.256Z,19.10
2022-10-09T19:43:40.686Z,19.10
2022-10-09T19:46:10.227Z,19.18
2022-10-09T19:48:38.026Z,19.10
2022-10-09T19:51:11.760Z,19.15
2022-10-09T19:53:39.627Z,19.12
2022-10-09T19:56:11.374Z,19.13
2022-10-09T19:58:40.979Z,19.12
2022-10-09T20:01:09.963Z,19.02
2022-10-09T20:03:38.250Z,19.03
2022-10-09T20:06:06.213Z,19.02
2022-10-09T20:08:33.841Z,18.93
2022-10-09T20:11:03.687Z,18.91
2022-10-09T20:13:31.782Z,18.90
2022-10-09T20:15:59.643Z,18.88
2022-10-09T20:18:27.846Z,18.80
2022-10-09T20:20:55.127Z,18.94
2022-10-09T20:23:22.558Z,18.99
2022-10-09T20:25:58.075Z,18.97
2022-10-09T20:28:25.247Z,18.99
2022-10-09T20:30:56.184Z,19.01
2022-10-09T20:33:23.392Z,19.03
2022-10-09T20:35:50.520Z,19.06
2022-10-09T20:38:25.378Z,19.08
2022-10-09T20:40:53.244Z,18.89
2022-10-09T20:43:20.359Z,18.79
2022-10-09T20:45:47.479Z,18.79
2022-10-09T20:48:14.677Z,18.71
2022-10-09T20:50:42.032Z,18.79
2022-10-09T20:53:10.105Z,18.73
2022-10-09T20:55:37.313Z,18.76
2022-10-09T20:58:04.631Z,18.85
2022-10-09T21:00:31.772Z,18.72
2022-10-09T21:02:58.941Z,18.73
2022-10-09T21:05:26.073Z,18.76
2022-10-09T21:07:53.213Z,18.79
2022-10-09T21:10:20.345Z,18.83
2022-10-09T21:12:47.607Z,18.65
2022-10-09T21:15:14.879Z,18.66
2022-10-09T21:17:42.005Z,18.60
2022-10-09T21:20:09.516Z,18.62
2022-10-09T21:22:36.612Z,18.64
2022-10-09T21:25:03.805Z,18.78
2022-10-09T21:27:30.890Z,18.55
2022-10-09T21:29:58.005Z,18.60
2022-10-09T21:32:25.192Z,18.56
2022-10-09T21:34:52.231Z,18.45
2022-10-09T21:37:22.032Z,18.46
2022-10-09T21:39:49.616Z,18.49
2022-10-09T21:42:16.718Z,18.44
2022-10-09T21:44:43.853Z,18.43
2022-10-09T21:47:15.420Z,18.42
2022-10-09T21:49:42.511Z,18.41
2022-10-09T21:52:10.141Z,18.42
2022-10-09T21:54:37.222Z,18.39
2022-10-09T21:57:04.354Z,18.33
2022-10-09T21:59:31.519Z,18.44
2022-10-09T22:01:59.259Z,18.45
2022-10-09T22:04:27.049Z,18.57
2022-10-09T22:06:54.300Z,18.47
2022-10-09T22:09:21.514Z,18.54
2022-10-09T22:11:48.749Z,18.45
2022-10-09T22:14:15.946Z,18.44
2022-10-09T22:16:43.130Z,18.43
2022-10-09T22:19:10.292Z,18.42
2022-10-09T22:21:37.624Z,18.38
2022-10-09T22:24:04.888Z,18.37
2022-10-09T22:26:32.044Z,18.25
2022-10-09T22:28:59.164Z,18.16
2022-10-09T22:31:26.954Z,18.20
2022-10-09T22:33:57.357Z,18.10
2022-10-09T22:36:26.306Z,18.10
2022-10-09T22:38:54.834Z,18.10
2022-10-09T22:41:23.009Z,18.11
2022-10-09T22:43:51.939Z,18.07
2022-10-09T22:46:23.673Z,18.12
2022-10-09T22:48:50.875Z,18.16
2022-10-09T22:51:18.778Z,18.18
2022-10-09T22:53:46.535Z,18.20
2022-10-09T22:56:17.884Z,18.26
2022-10-09T22:58:45.441Z,18.26
2022-10-09T23:01:14.619Z,18.32
2022-10-09T23:03:42.108Z,18.26
2022-10-09T23:06:10.642Z,18.28
2022-10-09T23:08:39.057Z,18.26
2022-10-09T23:11:06.648Z,18.24
2022-10-09T23:13:34.172Z,18.24
2022-10-09T23:16:02.201Z,18.27
2022-10-09T23:18:29.844Z,18.24
2022-10-09T23:20:57.016Z,18.19
2022-10-09T23:23:24.209Z,18.18
2022-10-09T23:25:51.573Z,18.22
2022-10-09T23:28:18.751Z,18.25
2022-10-09T23:30:45.901Z,18.31
2022-10-09T23:33:13.144Z,18.36
2022-10-09T23:35:41.325Z,18.36
2022-10-09T23:38:08.574Z,18.36
2022-10-09T23:40:35.687Z,18.41
2022-10-09T23:43:02.984Z,18.39
2022-10-09T23:45:30.088Z,18.34
2022-10-09T23:47:57.172Z,18.36
2022-10-09T23:50:24.362Z,18.36
2022-10-09T23:52:51.964Z,18.41
2022-10-09T23:55:19.407Z,18.47
2022-10-09T23:57:49.145Z,18.39
